sensor_id;sensor_type;location;lat;lon;timestamp;pressure;altitude;pressure_sealevel;temperature;humidity
32733;BME280;11867;51.198;11.966;2022-11-18T00:04:37;98800.06;;;7.01;100.00
32733;BME280;11867;51.198;11.966;2022-11-18T00:09:41;98784.16;;;7.46;100.00
32733;BME280;11867;51.198;11.966;2022-11-18T00:14:45;98785.59;;;7.25;100.00
32733;BME280;11867;51.198;11.966;2022-11-18T00:19:47;98787.88;;;6.85;100.00
32733;BME280;11867;51.198;11.966;2022-11-18T00:24:51;98789.09;;;7.58;100.00
32733;BME280;11867;51.198;11.966;2022-11-18T00:29:54;98804.63;;;7.85;99.90
32733;BME280;11867;51.198;11.966;2022-11-18T00:34:56;98803.53;;;7.07;100.00
32733;BME280;11867;51.198;11.966;2022-11-18T00:40:05;98801.84;;;7.25;100.00
32733;BME280;11867;51.198;11.966;2022-11-18T00:45:08;98796.75;;;7.70;100.00
32733;BME280;11867;51.198;11.966;2022-11-18T00:50:11;98779.88;;;7.73;100.00
32733;BME280;11867;51.198;11.966;2022-11-18T00:55:15;98792.84;;;7.76;99.80
32733;BME280;11867;51.198;11.966;2022-11-18T01:00:19;98802.19;;;7.70;99.53
32733;BME280;11867;51.198;11.966;2022-11-18T01:05:22;98806.41;;;7.76;99.59
32733;BME280;11867;51.198;11.966;2022-11-18T01:10:26;98809.72;;;7.26;100.00
32733;BME280;11867;51.198;11.966;2022-11-18T01:15:28;98805.19;;;7.55;100.00
32733;BME280;11867;51.198;11.966;2022-11-18T01:20:31;98797.50;;;7.43;100.00
32733;BME280;11867;51.198;11.966;2022-11-18T01:25:36;98796.84;;;7.65;100.00
32733;BME280;11867;51.198;11.966;2022-11-18T01:30:40;98795.97;;;7.37;100.00
32733;BME280;11867;51.198;11.966;2022-11-18T01:35:46;98796.94;;;7.60;100.00
32733;BME280;11867;51.198;11.966;2022-11-18T01:40:50;98794.84;;;7.24;100.00
32733;BME280;11867;51.198;11.966;2022-11-18T01:45:55;98793.72;;;7.58;100.00
32733;BME280;11867;51.198;11.966;2022-11-18T01:51:01;98786.13;;;7.87;100.00
32733;BME280;11867;51.198;11.966;2022-11-18T01:56:09;98788.72;;;7.93;99.03
32733;BME280;11867;51.198;11.966;2022-11-18T02:01:14;98803.16;;;7.46;100.00
32733;BME280;11867;51.198;11.966;2022-11-18T02:06:17;98796.34;;;6.97;100.00
32733;BME280;11867;51.198;11.966;2022-11-18T02:11:21;98794.34;;;7.22;100.00
32733;BME280;11867;51.198;11.966;2022-11-18T02:16:51;98797.22;;;7.12;100.00
32733;BME280;11867;51.198;11.966;2022-11-18T02:22:03;98796.53;;;7.53;100.00
32733;BME280;11867;51.198;11.966;2022-11-18T02:32:56;98811.59;;;6.93;100.00
32733;BME280;11867;51.198;11.966;2022-11-18T02:38:07;98813.47;;;7.12;100.00
32733;BME280;11867;51.198;11.966;2022-11-18T02:43:14;98827.13;;;6.44;100.00
32733;BME280;11867;51.198;11.966;2022-11-18T02:48:23;98823.44;;;6.97;100.00
32733;BME280;11867;51.198;11.966;2022-11-18T02:53:29;98829.16;;;6.77;100.00
32733;BME280;11867;51.198;11.966;2022-11-18T02:58:33;98825.75;;;7.23;100.00
32733;BME280;11867;51.198;11.966;2022-11-18T03:03:37;98828.44;;;7.09;100.00
32733;BME280;11867;51.198;11.966;2022-11-18T03:08:44;98851.97;;;7.08;100.00
32733;BME280;11867;51.198;11.966;2022-11-18T03:14:02;98855.59;;;6.85;100.00
32733;BME280;11867;51.198;11.966;2022-11-18T03:19:17;98855.81;;;7.07;100.00
32733;BME280;11867;51.198;11.966;2022-11-18T03:24:25;98861.59;;;7.01;100.00
32733;BME280;11867;51.198;11.966;2022-11-18T03:29:35;98858.50;;;6.70;100.00
32733;BME280;11867;51.198;11.966;2022-11-18T03:34:42;98850.75;;;6.82;100.00
32733;BME280;11867;51.198;11.966;2022-11-18T03:39:52;98849.66;;;6.83;100.00
32733;BME280;11867;51.198;11.966;2022-11-18T03:45:00;98854.84;;;7.17;100.00
32733;BME280;11867;51.198;11.966;2022-11-18T03:50:10;98868.09;;;6.62;100.00
32733;BME280;11867;51.198;11.966;2022-11-18T03:55:21;98877.25;;;7.04;100.00
32733;BME280;11867;51.198;11.966;2022-11-18T04:00:27;98893.56;;;6.80;100.00
32733;BME280;11867;51.198;11.966;2022-11-18T04:05:35;98891.97;;;6.79;100.00
32733;BME280;11867;51.198;11.966;2022-11-18T04:10:46;98893.66;;;7.13;100.00
32733;BME280;11867;51.198;11.966;2022-11-18T04:15:53;98892.03;;;6.74;100.00
32733;BME280;11867;51.198;11.966;2022-11-18T04:20:58;98890.13;;;7.31;100.00
32733;BME280;11867;51.198;11.966;2022-11-18T04:26:00;98896.47;;;6.89;100.00
32733;BME280;11867;51.198;11.966;2022-11-18T04:31:03;98898.69;;;6.81;100.00
32733;BME280;11867;51.198;11.966;2022-11-18T04:36:08;98911.69;;;6.84;100.00
32733;BME280;11867;51.198;11.966;2022-11-18T04:41:10;98913.94;;;6.96;100.00
32733;BME280;11867;51.198;11.966;2022-11-18T04:46:13;98917.25;;;6.50;100.00
32733;BME280;11867;51.198;11.966;2022-11-18T04:51:17;98917.56;;;6.19;100.00
32733;BME280;11867;51.198;11.966;2022-11-18T04:56:20;98919.94;;;6.26;100.00
32733;BME280;11867;51.198;11.966;2022-11-18T05:01:22;98929.91;;;6.79;100.00
32733;BME280;11867;51.198;11.966;2022-11-18T05:06:26;98927.63;;;6.43;100.00
32733;BME280;11867;51.198;11.966;2022-11-18T05:11:29;98927.66;;;6.62;100.00
32733;BME280;11867;51.198;11.966;2022-11-18T05:16:49;98928.47;;;6.62;100.00
32733;BME280;11867;51.198;11.966;2022-11-18T05:21:53;98937.59;;;5.89;100.00
32733;BME280;11867;51.198;11.966;2022-11-18T05:26:56;98932.63;;;5.67;100.00
32733;BME280;11867;51.198;11.966;2022-11-18T05:31:58;98944.50;;;5.71;100.00
32733;BME280;11867;51.198;11.966;2022-11-18T05:37:03;98952.69;;;5.95;100.00
32733;BME280;11867;51.198;11.966;2022-11-18T05:42:05;98961.38;;;6.21;100.00
32733;BME280;11867;51.198;11.966;2022-11-18T05:47:25;98965.28;;;5.76;100.00
32733;BME280;11867;51.198;11.966;2022-11-18T05:52:29;98976.81;;;5.86;100.00
32733;BME280;11867;51.198;11.966;2022-11-18T05:57:32;98992.31;;;5.36;100.00
32733;BME280;11867;51.198;11.966;2022-11-18T06:02:35;99002.34;;;5.70;100.00
32733;BME280;11867;51.198;11.966;2022-11-18T06:07:42;99010.34;;;4.96;100.00
32733;BME280;11867;51.198;11.966;2022-11-18T06:12:48;99016.72;;;5.21;100.00
32733;BME280;11867;51.198;11.966;2022-11-18T06:17:55;99028.78;;;4.74;100.00
32733;BME280;11867;51.198;11.966;2022-11-18T06:23:00;99036.34;;;4.72;100.00
32733;BME280;11867;51.198;11.966;2022-11-18T06:28:03;99032.31;;;4.54;100.00
32733;BME280;11867;51.198;11.966;2022-11-18T06:33:06;99048.44;;;4.90;100.00
32733;BME280;11867;51.198;11.966;2022-11-18T06:38:10;99051.09;;;5.00;100.00
32733;BME280;11867;51.198;11.966;2022-11-18T06:43:13;99047.09;;;4.87;100.00
32733;BME280;11867;51.198;11.966;2022-11-18T06:48:33;99055.94;;;5.13;100.00
32733;BME280;11867;51.198;11.966;2022-11-18T06:53:37;99056.00;;;4.93;100.00
32733;BME280;11867;51.198;11.966;2022-11-18T06:58:39;99063.59;;;4.65;100.00
32733;BME280;11867;51.198;11.966;2022-11-18T07:03:43;99058.94;;;5.07;100.00
32733;BME280;11867;51.198;11.966;2022-11-18T07:08:49;99070.63;;;4.66;100.00
32733;BME280;11867;51.198;11.966;2022-11-18T07:13:52;99072.75;;;4.95;100.00
32733;BME280;11867;51.198;11.966;2022-11-18T07:18:55;99075.91;;;5.17;100.00
32733;BME280;11867;51.198;11.966;2022-11-18T07:23:59;99090.25;;;5.08;100.00
32733;BME280;11867;51.198;11.966;2022-11-18T07:29:02;99093.75;;;5.13;100.00
32733;BME280;11867;51.198;11.966;2022-11-18T07:34:05;99098.72;;;4.70;100.00
32733;BME280;11867;51.198;11.966;2022-11-18T07:39:09;99102.75;;;4.88;100.00
32733;BME280;11867;51.198;11.966;2022-11-18T07:44:12;99110.34;;;4.40;100.00
32733;BME280;11867;51.198;11.966;2022-11-18T07:49:15;99104.91;;;4.71;100.00
32733;BME280;11867;51.198;11.966;2022-11-18T07:54:19;99124.91;;;4.18;100.00
32733;BME280;11867;51.198;11.966;2022-11-18T07:59:21;99125.16;;;4.01;100.00
32733;BME280;11867;51.198;11.966;2022-11-18T08:04:24;99131.88;;;4.09;100.00
32733;BME280;11867;51.198;11.966;2022-11-18T08:09:28;99139.22;;;4.34;100.00
32733;BME280;11867;51.198;11.966;2022-11-18T08:14:31;99144.50;;;3.73;100.00
32733;BME280;11867;51.198;11.966;2022-11-18T08:19:36;99145.31;;;3.73;100.00
32733;BME280;11867;51.198;11.966;2022-11-18T08:24:40;99157.69;;;3.64;100.00
32733;BME280;11867;51.198;11.966;2022-11-18T08:29:43;99161.22;;;3.80;100.00
32733;BME280;11867;51.198;11.966;2022-11-18T08:34:46;99164.25;;;4.09;100.00
32733;BME280;11867;51.198;11.966;2022-11-18T08:39:50;99162.84;;;3.86;100.00
32733;BME280;11867;51.198;11.966;2022-11-18T08:44:53;99184.66;;;3.69;100.00
32733;BME280;11867;51.198;11.966;2022-11-18T08:49:56;99184.72;;;3.95;100.00
32733;BME280;11867;51.198;11.966;2022-11-18T08:55:00;99187.63;;;3.78;100.00
32733;BME280;11867;51.198;11.966;2022-11-18T09:00:04;99196.34;;;3.95;100.00
32733;BME280;11867;51.198;11.966;2022-11-18T09:05:10;99198.19;;;3.84;100.00
32733;BME280;11867;51.198;11.966;2022-11-18T09:10:15;99202.53;;;3.96;100.00
32733;BME280;11867;51.198;11.966;2022-11-18T09:15:18;99204.09;;;3.81;100.00
32733;BME280;11867;51.198;11.966;2022-11-18T09:20:21;99215.81;;;4.23;100.00
32733;BME280;11867;51.198;11.966;2022-11-18T09:25:25;99223.44;;;3.63;100.00
32733;BME280;11867;51.198;11.966;2022-11-18T09:30:28;99237.41;;;3.55;100.00
32733;BME280;11867;51.198;11.966;2022-11-18T09:35:31;99232.69;;;3.30;100.00
32733;BME280;11867;51.198;11.966;2022-11-18T09:40:43;99241.06;;;3.38;100.00
32733;BME280;11867;51.198;11.966;2022-11-18T09:45:54;99248.31;;;2.95;100.00
32733;BME280;11867;51.198;11.966;2022-11-18T09:50:57;99247.81;;;2.98;100.00
32733;BME280;11867;51.198;11.966;2022-11-18T09:56:03;99255.97;;;3.09;100.00
32733;BME280;11867;51.198;11.966;2022-11-18T10:01:11;99257.63;;;3.15;100.00
32733;BME280;11867;51.198;11.966;2022-11-18T10:06:19;99276.78;;;2.86;100.00
32733;BME280;11867;51.198;11.966;2022-11-18T10:11:30;99283.84;;;2.92;100.00
32733;BME280;11867;51.198;11.966;2022-11-18T10:16:47;99286.94;;;2.79;100.00
32733;BME280;11867;51.198;11.966;2022-11-18T10:22:14;99302.47;;;2.99;100.00
32733;BME280;11867;51.198;11.966;2022-11-18T10:27:34;99295.44;;;2.16;100.00
32733;BME280;11867;51.198;11.966;2022-11-18T10:32:52;99298.59;;;2.57;100.00
32733;BME280;11867;51.198;11.966;2022-11-18T10:38:00;99314.63;;;2.47;100.00
32733;BME280;11867;51.198;11.966;2022-11-18T10:43:15;99327.63;;;2.33;100.00
32733;BME280;11867;51.198;11.966;2022-11-18T10:48:38;99336.78;;;2.10;100.00
32733;BME280;11867;51.198;11.966;2022-11-18T10:53:40;99333.16;;;2.21;100.00
32733;BME280;11867;51.198;11.966;2022-11-18T10:58:47;99343.72;;;2.28;100.00
32733;BME280;11867;51.198;11.966;2022-11-18T11:03:57;99351.69;;;2.40;100.00
32733;BME280;11867;51.198;11.966;2022-11-18T11:09:05;99358.47;;;2.70;100.00
32733;BME280;11867;51.198;11.966;2022-11-18T11:14:30;99366.00;;;2.24;100.00
32733;BME280;11867;51.198;11.966;2022-11-18T11:19:38;99371.53;;;2.17;100.00
32733;BME280;11867;51.198;11.966;2022-11-18T11:24:42;99367.25;;;1.77;100.00
32733;BME280;11867;51.198;11.966;2022-11-18T11:30:11;99381.88;;;2.03;100.00
32733;BME280;11867;51.198;11.966;2022-11-18T11:35:18;99376.53;;;1.69;100.00
32733;BME280;11867;51.198;11.966;2022-11-18T11:40:31;99393.06;;;1.44;100.00
32733;BME280;11867;51.198;11.966;2022-11-18T11:45:41;99400.66;;;1.30;100.00
32733;BME280;11867;51.198;11.966;2022-11-18T11:50:51;99396.50;;;1.39;100.00
32733;BME280;11867;51.198;11.966;2022-11-18T11:56:11;99403.56;;;1.63;100.00
32733;BME280;11867;51.198;11.966;2022-11-18T12:01:30;99392.81;;;1.79;100.00
32733;BME280;11867;51.198;11.966;2022-11-18T12:06:35;99412.81;;;1.21;100.00
32733;BME280;11867;51.198;11.966;2022-11-18T12:11:44;99424.72;;;1.25;100.00
32733;BME280;11867;51.198;11.966;2022-11-18T12:16:57;99418.06;;;1.78;100.00
32733;BME280;11867;51.198;11.966;2022-11-18T12:22:03;99423.84;;;1.70;100.00
32733;BME280;11867;51.198;11.966;2022-11-18T12:27:13;99426.69;;;1.47;100.00
32733;BME280;11867;51.198;11.966;2022-11-18T12:32:37;99436.28;;;1.42;100.00
32733;BME280;11867;51.198;11.966;2022-11-18T12:37:58;99435.06;;;1.33;100.00
32733;BME280;11867;51.198;11.966;2022-11-18T12:43:01;99435.56;;;1.30;100.00
32733;BME280;11867;51.198;11.966;2022-11-18T12:48:38;99448.66;;;1.44;100.00
32733;BME280;11867;51.198;11.966;2022-11-18T12:53:43;99447.06;;;1.59;100.00
32733;BME280;11867;51.198;11.966;2022-11-18T12:58:47;99449.81;;;1.65;100.00
32733;BME280;11867;51.198;11.966;2022-11-18T13:03:52;99466.28;;;1.85;100.00
32733;BME280;11867;51.198;11.966;2022-11-18T13:09:14;99469.75;;;1.35;100.00
32733;BME280;11867;51.198;11.966;2022-11-18T13:14:21;99475.22;;;1.57;100.00
32733;BME280;11867;51.198;11.966;2022-11-18T13:19:56;99484.63;;;1.42;100.00
32733;BME280;11867;51.198;11.966;2022-11-18T13:24:59;99486.13;;;1.21;100.00
32733;BME280;11867;51.198;11.966;2022-11-18T13:30:05;99491.41;;;1.16;100.00
32733;BME280;11867;51.198;11.966;2022-11-18T13:35:15;99500.03;;;1.47;100.00
32733;BME280;11867;51.198;11.966;2022-11-18T13:40:22;99500.81;;;1.02;100.00
32733;BME280;11867;51.198;11.966;2022-11-18T13:45:26;99508.31;;;1.29;100.00
32733;BME280;11867;51.198;11.966;2022-11-18T13:50:31;99514.22;;;1.02;100.00
32733;BME280;11867;51.198;11.966;2022-11-18T13:55:35;99515.91;;;0.91;100.00
32733;BME280;11867;51.198;11.966;2022-11-18T14:00:41;99516.09;;;1.59;100.00
32733;BME280;11867;51.198;11.966;2022-11-18T14:05:51;99527.81;;;1.24;100.00
32733;BME280;11867;51.198;11.966;2022-11-18T14:10:54;99542.75;;;0.91;100.00
32733;BME280;11867;51.198;11.966;2022-11-18T14:16:00;99548.44;;;0.95;100.00
32733;BME280;11867;51.198;11.966;2022-11-18T14:21:04;99548.91;;;1.32;100.00
32733;BME280;11867;51.198;11.966;2022-11-18T14:26:07;99550.81;;;0.79;100.00
32733;BME280;11867;51.198;11.966;2022-11-18T14:31:22;99563.78;;;0.71;100.00
32733;BME280;11867;51.198;11.966;2022-11-18T14:36:29;99561.53;;;0.20;100.00
32733;BME280;11867;51.198;11.966;2022-11-18T14:41:33;99568.69;;;0.50;100.00
32733;BME280;11867;51.198;11.966;2022-11-18T14:46:54;99584.16;;;0.72;100.00
32733;BME280;11867;51.198;11.966;2022-11-18T14:52:13;99587.66;;;0.37;100.00
32733;BME280;11867;51.198;11.966;2022-11-18T14:57:17;99584.16;;;0.72;100.00
32733;BME280;11867;51.198;11.966;2022-11-18T15:02:20;99598.38;;;0.72;100.00
32733;BME280;11867;51.198;11.966;2022-11-18T15:07:23;99614.22;;;0.27;100.00
32733;BME280;11867;51.198;11.966;2022-11-18T15:12:26;99612.13;;;0.17;100.00
32733;BME280;11867;51.198;11.966;2022-11-18T15:17:29;99628.94;;;0.36;100.00
32733;BME280;11867;51.198;11.966;2022-11-18T15:22:33;99626.94;;;0.19;100.00
32733;BME280;11867;51.198;11.966;2022-11-18T15:27:36;99642.50;;;-0.01;100.00
32733;BME280;11867;51.198;11.966;2022-11-18T15:32:39;99638.69;;;0.18;100.00
32733;BME280;11867;51.198;11.966;2022-11-18T15:37:43;99654.78;;;-0.42;100.00
32733;BME280;11867;51.198;11.966;2022-11-18T15:42:45;99663.94;;;-0.01;100.00
32733;BME280;11867;51.198;11.966;2022-11-18T15:47:53;99677.44;;;0.04;100.00
32733;BME280;11867;51.198;11.966;2022-11-18T15:52:58;99680.38;;;-0.28;100.00
32733;BME280;11867;51.198;11.966;2022-11-18T15:58:02;99678.91;;;-0.61;100.00
32733;BME280;11867;51.198;11.966;2022-11-18T16:03:07;99686.78;;;-0.29;100.00
32733;BME280;11867;51.198;11.966;2022-11-18T16:08:11;99693.22;;;-0.18;100.00
32733;BME280;11867;51.198;11.966;2022-11-18T16:13:19;99697.53;;;0.13;100.00
32733;BME280;11867;51.198;11.966;2022-11-18T16:18:22;99704.69;;;-0.29;100.00
32733;BME280;11867;51.198;11.966;2022-11-18T16:23:27;99712.38;;;-0.70;100.00
32733;BME280;11867;51.198;11.966;2022-11-18T16:28:30;99719.91;;;0.07;100.00
32733;BME280;11867;51.198;11.966;2022-11-18T16:33:36;99722.03;;;0.17;100.00
32733;BME280;11867;51.198;11.966;2022-11-18T16:38:40;99720.56;;;0.75;100.00
32733;BME280;11867;51.198;11.966;2022-11-18T16:43:43;99727.38;;;0.47;100.00
32733;BME280;11867;51.198;11.966;2022-11-18T16:48:46;99737.66;;;0.50;100.00
32733;BME280;11867;51.198;11.966;2022-11-18T16:53:51;99737.81;;;-0.24;100.00
32733;BME280;11867;51.198;11.966;2022-11-18T16:58:57;99749.06;;;0.15;100.00
32733;BME280;11867;51.198;11.966;2022-11-18T17:04:01;99762.31;;;0.10;100.00
32733;BME280;11867;51.198;11.966;2022-11-18T17:09:06;99770.03;;;0.07;100.00
32733;BME280;11867;51.198;11.966;2022-11-18T17:14:10;99784.31;;;0.01;100.00
32733;BME280;11867;51.198;11.966;2022-11-18T17:19:15;99785.44;;;-0.07;100.00
32733;BME280;11867;51.198;11.966;2022-11-18T17:24:21;99792.88;;;-0.28;100.00
32733;BME280;11867;51.198;11.966;2022-11-18T17:29:24;99791.31;;;0.02;100.00
32733;BME280;11867;51.198;11.966;2022-11-18T17:34:26;99794.72;;;0.27;100.00
32733;BME280;11867;51.198;11.966;2022-11-18T17:39:30;99803.22;;;-0.13;100.00
32733;BME280;11867;51.198;11.966;2022-11-18T17:44:33;99806.13;;;-0.14;100.00
32733;BME280;11867;51.198;11.966;2022-11-18T17:49:36;99815.63;;;0.18;100.00
32733;BME280;11867;51.198;11.966;2022-11-18T17:54:40;99809.75;;;0.58;100.00
32733;BME280;11867;51.198;11.966;2022-11-18T17:59:42;99812.50;;;0.82;99.22
32733;BME280;11867;51.198;11.966;2022-11-18T18:04:45;99817.22;;;0.68;99.27
32733;BME280;11867;51.198;11.966;2022-11-18T18:09:51;99821.28;;;0.29;100.00
32733;BME280;11867;51.198;11.966;2022-11-18T18:14:54;99817.88;;;0.22;100.00
32733;BME280;11867;51.198;11.966;2022-11-18T18:19:57;99827.19;;;0.49;100.00
32733;BME280;11867;51.198;11.966;2022-11-18T18:25:01;99833.59;;;0.78;99.59
32733;BME280;11867;51.198;11.966;2022-11-18T18:30:06;99842.25;;;0.80;98.06
32733;BME280;11867;51.198;11.966;2022-11-18T18:35:16;99845.88;;;1.40;95.37
32733;BME280;11867;51.198;11.966;2022-11-18T18:40:23;99855.53;;;1.06;95.58
32733;BME280;11867;51.198;11.966;2022-11-18T18:45:26;99857.94;;;0.95;96.65
32733;BME280;11867;51.198;11.966;2022-11-18T18:50:47;99853.28;;;1.03;96.20
32733;BME280;11867;51.198;11.966;2022-11-18T18:55:55;99857.84;;;0.72;96.04
32733;BME280;11867;51.198;11.966;2022-11-18T19:01:04;99857.03;;;0.23;98.65
32733;BME280;11867;51.198;11.966;2022-11-18T19:06:16;99855.84;;;0.18;99.66
32733;BME280;11867;51.198;11.966;2022-11-18T19:11:42;99867.22;;;0.32;98.69
32733;BME280;11867;51.198;11.966;2022-11-18T19:17:03;99868.81;;;0.40;98.42
32733;BME280;11867;51.198;11.966;2022-11-18T19:22:30;99891.66;;;-0.13;98.40
32733;BME280;11867;51.198;11.966;2022-11-18T19:27:36;99897.72;;;0.19;97.02
32733;BME280;11867;51.198;11.966;2022-11-18T19:32:41;99895.97;;;-0.55;98.01
32733;BME280;11867;51.198;11.966;2022-11-18T19:37:44;99895.22;;;-0.19;97.61
32733;BME280;11867;51.198;11.966;2022-11-18T19:42:49;99881.94;;;-0.32;97.24
32733;BME280;11867;51.198;11.966;2022-11-18T19:47:53;99888.41;;;-0.40;98.17
32733;BME280;11867;51.198;11.966;2022-11-18T19:52:56;99896.84;;;-0.62;97.53
32733;BME280;11867;51.198;11.966;2022-11-18T19:58:00;99907.09;;;-0.08;95.35
32733;BME280;11867;51.198;11.966;2022-11-18T20:03:03;99916.50;;;-0.24;95.07
32733;BME280;11867;51.198;11.966;2022-11-18T20:08:07;99926.88;;;-0.34;95.97
32733;BME280;11867;51.198;11.966;2022-11-18T20:13:12;99935.78;;;-0.15;93.97
32733;BME280;11867;51.198;11.966;2022-11-18T20:18:17;99951.31;;;-0.49;96.61
32733;BME280;11867;51.198;11.966;2022-11-18T20:23:23;99959.84;;;-0.34;94.15
32733;BME280;11867;51.198;11.966;2022-11-18T20:28:27;99954.88;;;-0.30;93.62
32733;BME280;11867;51.198;11.966;2022-11-18T20:33:32;99950.06;;;-0.22;93.29
32733;BME280;11867;51.198;11.966;2022-11-18T20:38:35;99964.66;;;-0.17;93.40
32733;BME280;11867;51.198;11.966;2022-11-18T20:43:39;99958.28;;;-0.16;92.70
32733;BME280;11867;51.198;11.966;2022-11-18T20:48:44;99969.25;;;0.01;90.83
32733;BME280;11867;51.198;11.966;2022-11-18T20:53:51;99971.59;;;0.15;90.90
32733;BME280;11867;51.198;11.966;2022-11-18T20:59:00;99971.44;;;0.47;89.74
32733;BME280;11867;51.198;11.966;2022-11-18T21:04:04;99984.78;;;-0.08;90.52
32733;BME280;11867;51.198;11.966;2022-11-18T21:09:07;99976.25;;;0.02;89.83
32733;BME280;11867;51.198;11.966;2022-11-18T21:14:12;99988.06;;;0.37;90.37
32733;BME280;11867;51.198;11.966;2022-11-18T21:19:26;100001.06;;;0.15;89.53
32733;BME280;11867;51.198;11.966;2022-11-18T21:24:32;99987.78;;;0.27;89.02
32733;BME280;11867;51.198;11.966;2022-11-18T21:29:41;99993.97;;;0.46;88.34
32733;BME280;11867;51.198;11.966;2022-11-18T21:34:47;99992.22;;;-0.10;88.45
32733;BME280;11867;51.198;11.966;2022-11-18T21:39:50;99990.69;;;0.01;89.85
32733;BME280;11867;51.198;11.966;2022-11-18T21:44:56;99996.59;;;-0.41;89.15
32733;BME280;11867;51.198;11.966;2022-11-18T21:50:00;100010.47;;;-0.26;88.78
32733;BME280;11867;51.198;11.966;2022-11-18T21:55:04;99993.75;;;-0.21;90.33
32733;BME280;11867;51.198;11.966;2022-11-18T22:00:12;100013.75;;;-0.24;88.61
32733;BME280;11867;51.198;11.966;2022-11-18T22:05:17;100013.81;;;-0.30;88.75
32733;BME280;11867;51.198;11.966;2022-11-18T22:10:21;100024.66;;;-0.50;90.03
32733;BME280;11867;51.198;11.966;2022-11-18T22:15:26;100036.84;;;0.03;88.52
32733;BME280;11867;51.198;11.966;2022-11-18T22:20:29;100028.91;;;0.14;88.46
32733;BME280;11867;51.198;11.966;2022-11-18T22:25:32;100036.38;;;-0.45;88.95
32733;BME280;11867;51.198;11.966;2022-11-18T22:30:38;100045.63;;;-0.41;88.90
32733;BME280;11867;51.198;11.966;2022-11-18T22:35:42;100039.94;;;-0.26;89.35
32733;BME280;11867;51.198;11.966;2022-11-18T22:40:45;100049.28;;;-0.35;90.74
32733;BME280;11867;51.198;11.966;2022-11-18T22:45:57;100050.91;;;0.23;87.59
32733;BME280;11867;51.198;11.966;2022-11-18T22:51:01;100050.06;;;0.23;87.46
32733;BME280;11867;51.198;11.966;2022-11-18T22:56:07;100058.19;;;-0.09;86.57
32733;BME280;11867;51.198;11.966;2022-11-18T23:01:14;100062.47;;;0.24;87.36
32733;BME280;11867;51.198;11.966;2022-11-18T23:06:18;100064.63;;;0.08;86.29
32733;BME280;11867;51.198;11.966;2022-11-18T23:11:21;100066.13;;;-0.28;89.00
32733;BME280;11867;51.198;11.966;2022-11-18T23:16:41;100084.84;;;-0.21;88.06
32733;BME280;11867;51.198;11.966;2022-11-18T23:21:44;100084.38;;;0.14;87.30
32733;BME280;11867;51.198;11.966;2022-11-18T23:26:46;100091.00;;;0.11;87.93
32733;BME280;11867;51.198;11.966;2022-11-18T23:31:51;100083.13;;;0.85;85.75
32733;BME280;11867;51.198;11.966;2022-11-18T23:36:54;100089.41;;;0.04;87.02
32733;BME280;11867;51.198;11.966;2022-11-18T23:41:56;100106.06;;;-0.19;91.16
32733;BME280;11867;51.198;11.966;2022-11-18T23:47:00;100107.22;;;-0.02;88.64
32733;BME280;11867;51.198;11.966;2022-11-18T23:52:03;100112.72;;;0.53;87.62
32733;BME280;11867;51.198;11.966;2022-11-18T23:57:06;100117.47;;;-0.31;89.46
